Time;durP1;ratioP1;P1;durP2;ratioP2;P2;SDS_P1;SDS_P2;PMS_P1;PMS_P2;Temp;Humidity;BMP_temperature;BMP_pressure;BME280_temperature;BME280_humidity;BME280_pressure;Samples;Min_cycle;Max_cycle;Signal;HPM_P1;HPM_P2
2022/11/10 00:00:12;;;;;;;18.43;10.70;;;9.00;85.20;;;;;;5003354;28;20860;-72
2022/11/10 00:02:38;;;;;;;19.20;10.07;;;9.00;85.00;;;;;;4982029;28;20208;-72
2022/11/10 00:05:03;;;;;;;17.10;10.63;;;9.00;85.50;;;;;;5001716;28;20422;-72
2022/11/10 00:07:29;;;;;;;23.07;10.83;;;9.00;85.40;;;;;;4983900;28;20200;-73
2022/11/10 00:09:55;;;;;;;16.00;9.67;;;9.00;85.20;;;;;;5007341;28;20181;-72
2022/11/10 00:12:21;;;;;;;16.47;10.37;;;9.00;85.40;;;;;;5005454;28;20642;-72
2022/11/10 00:17:34;;;;;;;17.77;9.97;;;9.00;85.90;;;;;;5005200;28;21135;-72
2022/11/10 00:20:00;;;;;;;18.13;9.93;;;9.00;85.90;;;;;;5006548;28;20185;-72
2022/11/10 00:22:25;;;;;;;17.60;10.47;;;9.00;85.80;;;;;;5006877;28;20200;-72
2022/11/10 00:24:51;;;;;;;21.30;10.33;;;8.90;85.70;;;;;;5005049;28;20184;-72
2022/11/10 00:27:17;;;;;;;17.03;10.57;;;8.90;85.30;;;;;;5005307;28;20181;-72
2022/11/10 00:29:43;;;;;;;18.40;10.47;;;8.90;86.30;;;;;;4987540;28;20671;-72
2022/11/10 00:32:09;;;;;;;18.50;10.37;;;8.90;86.00;;;;;;4988928;28;20718;-73
2022/11/10 00:34:35;;;;;;;17.77;10.17;;;8.80;85.90;;;;;;5005693;28;20608;-73
2022/11/10 00:37:01;;;;;;;17.77;10.63;;;8.80;85.60;;;;;;5006461;28;20192;-73
2022/11/10 00:39:27;;;;;;;17.77;11.07;;;8.80;85.30;;;;;;5004020;28;20181;-73
2022/11/10 00:41:53;;;;;;;18.97;10.43;;;8.70;85.20;;;;;;5005853;28;20187;-71
2022/11/10 00:44:18;;;;;;;16.13;10.57;;;8.70;85.60;;;;;;5004459;28;20196;-73
2022/11/10 00:46:44;;;;;;;17.50;10.77;;;8.70;85.60;;;;;;5003832;28;20236;-73
2022/11/10 00:49:10;;;;;;;24.57;11.83;;;8.70;85.70;;;;;;5007813;28;20321;-71
2022/11/10 00:51:36;;;;;;;22.60;10.47;;;8.70;85.70;;;;;;5004036;28;20640;-74
2022/11/10 00:54:02;;;;;;;15.23;9.63;;;8.70;85.70;;;;;;5004064;28;20189;-72
2022/11/10 00:56:28;;;;;;;16.23;10.47;;;8.70;85.70;;;;;;5005338;28;20303;-72
2022/11/10 00:58:54;;;;;;;15.70;10.07;;;8.70;85.70;;;;;;5003005;28;20200;-72
2022/11/10 01:01:24;;;;;;;17.47;9.77;;;8.70;86.00;;;;;;5002599;28;20181;-75
2022/11/10 01:03:52;;;;;;;16.43;10.17;;;8.70;86.40;;;;;;5003653;28;20185;-73
2022/11/10 01:06:19;;;;;;;14.37;9.60;;;8.70;86.50;;;;;;5006539;28;20205;-73
2022/11/10 01:08:45;;;;;;;15.33;9.50;;;8.70;86.70;;;;;;5003364;28;20216;-71
2022/11/10 01:11:16;;;;;;;21.20;10.90;;;8.60;86.30;;;;;;5006152;28;20217;-72
2022/11/10 01:13:42;;;;;;;14.10;9.63;;;8.60;86.60;;;;;;5004616;28;20188;-73
2022/11/10 01:16:14;;;;;;;16.50;10.80;;;8.60;87.50;;;;;;5003467;28;20185;-73
2022/11/10 01:18:41;;;;;;;13.47;9.87;;;8.50;86.70;;;;;;5003426;28;20178;-73
2022/11/10 01:21:07;;;;;;;18.70;10.10;;;8.50;86.50;;;;;;5003372;28;20578;-73
2022/11/10 01:23:33;;;;;;;15.63;10.57;;;8.40;86.40;;;;;;5002936;28;20268;-72
2022/11/10 01:26:01;;;;;;;16.30;10.13;;;8.40;87.10;;;;;;5003849;28;20216;-72
2022/11/10 01:28:28;;;;;;;19.37;10.73;;;8.40;87.40;;;;;;5006790;28;20177;-72
2022/11/10 01:31:10;;;;;;;15.57;9.30;;;8.40;87.60;;;;;;5003917;28;20243;-73
2022/11/10 01:33:35;;;;;;;18.33;10.10;;;8.40;87.50;;;;;;4985429;28;20243;-73
2022/11/10 01:36:02;;;;;;;22.00;10.23;;;8.40;88.10;;;;;;5004552;28;20196;-72
2022/11/10 01:38:29;;;;;;;22.40;9.57;;;8.40;87.80;;;;;;5003544;28;20189;-71
2022/11/10 01:40:56;;;;;;;13.50;9.47;;;8.30;87.50;;;;;;5006460;28;20272;-71
2022/11/10 01:43:22;;;;;;;15.00;9.77;;;8.30;87.20;;;;;;5005871;28;20181;-72
2022/11/10 01:46:01;;;;;;;14.17;9.47;;;8.30;87.90;;;;;;5003456;28;20235;-72
2022/11/10 01:48:29;;;;;;;19.80;9.50;;;8.30;87.50;;;;;;5003408;28;20180;-72
2022/11/10 01:51:02;;;;;;;20.17;10.23;;;8.20;88.30;;;;;;5003178;28;20217;-72
2022/11/10 01:53:30;;;;;;;16.37;9.20;;;8.20;88.50;;;;;;5004831;28;20263;-73
2022/11/10 01:55:57;;;;;;;15.00;9.03;;;8.20;88.60;;;;;;5001905;28;20945;-73
2022/11/10 01:58:29;;;;;;;11.23;8.03;;;8.10;88.00;;;;;;5004624;28;20192;-70
2022/11/10 02:00:55;;;;;;;13.03;8.80;;;8.10;88.90;;;;;;5003430;28;21525;-71
2022/11/10 02:03:32;;;;;;;15.17;9.37;;;8.10;89.20;;;;;;5002982;28;20188;-72
2022/11/10 02:05:58;;;;;;;13.83;8.53;;;8.10;89.00;;;;;;5003732;28;20212;-72
2022/11/10 02:08:24;;;;;;;14.33;9.40;;;8.00;88.40;;;;;;5002299;28;20181;-71
2022/11/10 02:10:50;;;;;;;12.80;8.87;;;8.00;88.20;;;;;;5003230;28;20259;-72
2022/11/10 02:13:16;;;;;;;14.27;8.13;;;8.00;87.80;;;;;;5003339;28;20184;-71
2022/11/10 02:15:42;;;;;;;11.50;8.13;;;8.00;88.10;;;;;;5004647;28;20188;-70
2022/11/10 02:18:08;;;;;;;13.77;8.50;;;8.00;88.50;;;;;;5004088;28;20185;-73
2022/11/10 02:20:34;;;;;;;13.00;8.60;;;8.00;88.20;;;;;;5002576;28;20631;-73
2022/11/10 02:23:14;;;;;;;12.50;8.10;;;8.00;88.40;;;;;;5002522;28;20216;-72
2022/11/10 02:25:40;;;;;;;13.67;8.63;;;8.00;87.90;;;;;;5004544;28;20204;-72
2022/11/10 02:28:06;;;;;;;13.73;9.37;;;8.00;88.00;;;;;;5004542;28;20184;-73
2022/11/10 02:30:31;;;;;;;15.00;8.87;;;8.00;88.10;;;;;;5003314;28;20177;-72
2022/11/10 02:32:57;;;;;;;14.00;8.77;;;8.00;88.30;;;;;;5003629;28;20247;-72
2022/11/10 02:35:23;;;;;;;12.50;8.13;;;8.00;88.30;;;;;;5003067;28;20189;-72
2022/11/10 02:37:48;;;;;;;15.27;8.17;;;8.00;88.10;;;;;;5004266;28;20181;-70
2022/11/10 02:40:14;;;;;;;17.93;9.87;;;7.90;87.20;;;;;;4985099;28;20178;-71
2022/11/10 02:42:40;;;;;;;14.23;9.10;;;7.80;88.40;;;;;;5004782;28;20177;-71
2022/11/10 02:45:07;;;;;;;16.53;9.87;;;7.80;88.50;;;;;;5001793;28;20217;-71
2022/11/10 02:47:33;;;;;;;14.37;9.37;;;7.80;88.20;;;;;;4984250;28;20414;-72
2022/11/10 02:49:58;;;;;;;15.30;9.33;;;7.80;88.00;;;;;;4985022;28;20200;-72
2022/11/10 02:52:24;;;;;;;15.73;9.07;;;7.90;88.20;;;;;;4999513;28;20192;-71
2022/11/10 02:54:50;;;;;;;18.47;10.33;;;7.90;88.10;;;;;;5002466;28;20193;-72
2022/11/10 02:57:15;;;;;;;19.27;9.53;;;7.90;88.00;;;;;;5001847;28;20717;-73
2022/11/10 02:59:41;;;;;;;17.13;9.03;;;7.80;87.80;;;;;;4982791;28;20271;-71
2022/11/10 03:02:07;;;;;;;13.73;8.23;;;7.80;87.80;;;;;;5004648;28;20184;-72
2022/11/10 03:04:32;;;;;;;14.87;9.70;;;7.80;87.70;;;;;;5004415;28;20184;-72
2022/11/10 03:06:58;;;;;;;17.53;9.23;;;7.80;88.40;;;;;;5003653;28;20224;-72
2022/11/10 03:09:24;;;;;;;15.60;8.73;;;7.80;88.20;;;;;;5000584;28;20196;-71
2022/11/10 03:11:49;;;;;;;16.07;9.10;;;7.80;89.00;;;;;;5001551;28;20568;-72
2022/11/10 03:14:15;;;;;;;14.97;8.87;;;7.80;89.00;;;;;;5003395;28;20238;-71
2022/11/10 03:16:41;;;;;;;16.33;8.23;;;7.80;88.80;;;;;;5004013;28;20321;-72
2022/11/10 03:19:06;;;;;;;11.07;7.43;;;7.70;88.80;;;;;;5004379;28;20181;-71
2022/11/10 03:21:32;;;;;;;14.33;8.50;;;7.70;89.30;;;;;;5001059;28;20798;-72
2022/11/10 03:23:58;;;;;;;17.03;9.30;;;7.70;89.40;;;;;;4984303;28;20181;-72
2022/11/10 03:26:23;;;;;;;15.60;8.97;;;7.70;89.30;;;;;;4984810;28;20228;-72
2022/11/10 03:28:49;;;;;;;18.70;8.83;;;7.60;89.50;;;;;;5002806;28;20181;-72
2022/11/10 03:31:15;;;;;;;13.93;8.50;;;7.60;89.40;;;;;;4985174;28;20309;-72
2022/11/10 03:33:40;;;;;;;15.17;8.43;;;7.60;89.30;;;;;;5001883;28;20252;-73
2022/11/10 03:36:06;;;;;;;20.40;8.77;;;7.60;89.10;;;;;;4985776;28;20261;-71
2022/11/10 03:38:32;;;;;;;14.63;8.67;;;7.50;89.30;;;;;;4984765;28;20185;-72
2022/11/10 03:40:58;;;;;;;14.27;8.20;;;7.50;88.80;;;;;;5003588;28;20193;-71
2022/11/10 03:43:24;;;;;;;14.07;7.97;;;7.50;89.00;;;;;;5004041;28;20211;-71
2022/11/10 03:45:49;;;;;;;17.87;9.03;;;7.50;88.70;;;;;;4989003;28;20216;-71
2022/11/10 03:48:15;;;;;;;17.37;9.10;;;7.40;88.40;;;;;;5006186;28;20268;-72
2022/11/10 03:50:41;;;;;;;14.70;9.63;;;7.40;88.50;;;;;;5007599;28;20177;-71
2022/11/10 03:53:06;;;;;;;12.87;8.37;;;7.40;88.20;;;;;;5007733;28;20268;-72
2022/11/10 03:55:32;;;;;;;14.53;8.13;;;7.40;88.20;;;;;;5007301;28;20215;-71
2022/11/10 03:58:02;;;;;;;10.53;7.93;;;7.40;88.20;;;;;;5006059;28;20259;-72
2022/11/10 04:00:28;;;;;;;13.37;8.70;;;7.40;88.20;;;;;;5005613;28;20209;-71
2022/11/10 04:02:54;;;;;;;11.40;8.17;;;7.40;88.60;;;;;;5006274;28;20216;-71
2022/11/10 04:10:59;;;;;;;13.73;8.23;;;7.40;88.20;;;;;;5003624;28;20196;-72
2022/11/10 04:16:09;;;;;;;13.43;8.60;;;7.40;88.30;;;;;;5006747;28;20203;-73
2022/11/10 04:18:35;;;;;;;13.93;8.87;;;7.40;88.20;;;;;;5007339;28;20188;-73
2022/11/10 04:21:02;;;;;;;13.60;8.27;;;7.40;88.10;;;;;;5004528;28;20181;-72
2022/11/10 04:23:33;;;;;;;16.03;8.60;;;7.40;88.20;;;;;;5004354;28;20204;-73
2022/11/10 04:28:52;;;;;;;14.53;8.80;;;7.40;88.10;;;;;;5005895;28;20196;-72
2022/11/10 04:31:19;;;;;;;14.33;8.67;;;7.40;88.30;;;;;;5006698;28;20177;-72
2022/11/10 04:33:46;;;;;;;12.97;8.73;;;7.40;88.20;;;;;;5006066;28;20191;-72
2022/11/10 04:36:14;;;;;;;12.73;8.87;;;7.40;88.20;;;;;;5006367;28;20263;-72
2022/11/10 04:38:41;;;;;;;16.47;9.33;;;7.40;88.10;;;;;;5007079;28;20264;-72
2022/11/10 04:41:07;;;;;;;14.60;8.47;;;7.40;88.30;;;;;;4988031;28;20277;-71
2022/11/10 04:43:33;;;;;;;15.77;8.97;;;7.40;88.20;;;;;;5004036;28;20185;-74
2022/11/10 04:46:00;;;;;;;14.70;9.27;;;7.40;88.10;;;;;;5004964;28;20244;-70
2022/11/10 04:48:26;;;;;;;11.60;8.77;;;7.40;88.30;;;;;;5005450;28;20267;-71
2022/11/10 04:50:52;;;;;;;17.27;10.27;;;7.40;88.60;;;;;;5004931;28;20815;-71
2022/11/10 04:53:18;;;;;;;11.33;8.47;;;7.50;88.60;;;;;;5006237;28;20291;-71
2022/11/10 04:55:44;;;;;;;13.27;8.77;;;7.50;88.90;;;;;;5004379;28;20209;-74
2022/11/10 04:58:11;;;;;;;14.97;8.87;;;7.50;89.20;;;;;;5003483;28;20469;-70
2022/11/10 05:00:38;;;;;;;15.63;9.13;;;7.50;89.20;;;;;;5001540;28;20271;-71
2022/11/10 05:03:05;;;;;;;14.73;9.20;;;7.50;89.00;;;;;;5005085;28;20189;-70
2022/11/10 05:05:32;;;;;;;16.23;10.23;;;7.50;88.80;;;;;;4986970;28;20302;-71
2022/11/10 05:07:58;;;;;;;15.37;9.27;;;7.50;88.60;;;;;;5003514;28;20189;-71
2022/11/10 05:10:24;;;;;;;14.23;9.40;;;7.50;88.70;;;;;;5004275;28;20184;-72
2022/11/10 05:12:57;;;;;;;17.13;9.20;;;7.50;88.60;;;;;;5000080;28;20323;-71
2022/11/10 05:15:24;;;;;;;14.10;8.07;;;7.50;88.60;;;;;;5002963;28;20181;-72
2022/11/10 05:17:51;;;;;;;16.90;8.83;;;7.50;88.50;;;;;;5003336;28;20594;-72
2022/11/10 05:20:18;;;;;;;14.50;9.07;;;7.50;88.90;;;;;;5004212;28;20208;-73
2022/11/10 05:23:36;;;;;;;15.67;8.37;;;7.40;88.60;;;;;;5004210;28;20196;-72
2022/11/10 05:25:36;;;;;;;14.67;8.23;;;7.40;88.60;;;;;;5004306;28;20307;-72
2022/11/10 05:28:02;;;;;;;11.37;7.77;;;7.40;88.60;;;;;;5005022;28;20182;-73
2022/11/10 05:30:28;;;;;;;13.87;8.43;;;7.40;88.60;;;;;;5002238;28;20754;-71
2022/11/10 05:32:54;;;;;;;11.70;8.27;;;7.40;88.60;;;;;;5003183;28;20251;-72
2022/11/10 05:35:19;;;;;;;12.43;8.17;;;7.40;89.40;;;;;;4987962;28;20195;-71
2022/11/10 05:37:45;;;;;;;12.53;8.33;;;7.40;89.60;;;;;;5005433;28;20217;-73
2022/11/10 05:40:12;;;;;;;10.80;8.13;;;7.40;90.00;;;;;;5006189;28;20181;-72
2022/11/10 05:42:45;;;;;;;14.27;8.63;;;7.40;90.00;;;;;;4987711;28;20240;-74
2022/11/10 05:45:11;;;;;;;12.07;8.27;;;7.40;89.90;;;;;;5002266;28;20271;-75
2022/11/10 05:47:37;;;;;;;11.77;8.60;;;7.30;89.90;;;;;;5002650;28;20185;-71
2022/11/10 05:50:04;;;;;;;12.37;9.10;;;7.30;89.70;;;;;;4987574;28;20185;-75
2022/11/10 05:52:29;;;;;;;11.57;8.23;;;7.30;89.60;;;;;;5002741;28;20185;-73
2022/11/10 05:54:55;;;;;;;16.37;9.77;;;7.40;89.70;;;;;;5002508;28;20193;-73
2022/11/10 05:57:21;;;;;;;16.37;8.67;;;7.40;89.70;;;;;;5003397;28;20187;-74
2022/11/10 05:59:47;;;;;;;17.83;10.47;;;7.40;89.30;;;;;;5005663;28;20185;-72
2022/11/10 06:02:12;;;;;;;16.20;9.20;;;7.50;89.40;;;;;;5002189;28;20177;-74
2022/11/10 06:04:38;;;;;;;18.43;11.03;;;7.50;89.80;;;;;;5001619;28;20219;-73
2022/11/10 06:07:04;;;;;;;18.47;9.97;;;7.60;89.80;;;;;;5000094;28;20223;-72
2022/11/10 06:09:29;;;;;;;16.13;10.37;;;7.70;89.80;;;;;;5003477;28;20196;-72
2022/11/10 06:11:55;;;;;;;21.63;11.50;;;7.80;90.00;;;;;;5003384;28;20264;-73
2022/11/10 06:14:21;;;;;;;20.37;10.90;;;7.90;90.60;;;;;;5004241;28;20192;-73
2022/11/10 06:16:46;;;;;;;16.90;10.27;;;8.00;90.90;;;;;;5003904;28;20188;-71
2022/11/10 06:19:12;;;;;;;22.37;11.30;;;8.10;91.20;;;;;;5004402;28;20184;-73
2022/11/10 06:21:38;;;;;;;17.17;10.57;;;8.10;90.80;;;;;;5002723;28;20192;-74
2022/11/10 06:24:03;;;;;;;14.57;10.07;;;8.20;90.60;;;;;;5002882;28;20654;-72
2022/11/10 06:26:29;;;;;;;14.77;9.67;;;8.30;90.80;;;;;;5003544;28;20220;-74
2022/11/10 06:28:56;;;;;;;18.03;10.00;;;8.40;90.50;;;;;;5003163;28;20234;-72
2022/11/10 06:31:22;;;;;;;17.13;9.93;;;8.40;90.30;;;;;;5003157;28;20212;-73
2022/11/10 06:33:48;;;;;;;21.87;11.00;;;8.50;89.90;;;;;;5003923;28;20185;-71
2022/11/10 06:36:14;;;;;;;23.43;11.70;;;8.60;90.10;;;;;;5004874;28;20582;-72
2022/11/10 06:38:40;;;;;;;19.70;10.67;;;8.70;90.10;;;;;;5002889;28;20192;-72
2022/11/10 06:41:06;;;;;;;16.83;9.67;;;8.70;89.70;;;;;;5004170;28;20185;-73
2022/11/10 06:43:32;;;;;;;17.23;11.17;;;8.80;89.80;;;;;;5000891;28;20185;-72
2022/11/10 06:45:57;;;;;;;18.07;11.00;;;8.90;89.70;;;;;;5003800;28;20209;-72
2022/11/10 06:48:23;;;;;;;17.17;10.37;;;9.10;89.70;;;;;;5003586;28;20408;-73
2022/11/10 06:50:49;;;;;;;24.10;10.80;;;9.20;89.20;;;;;;5003126;28;20188;-73
2022/11/10 06:53:15;;;;;;;19.60;11.73;;;9.30;89.40;;;;;;5001851;28;20612;-73
2022/11/10 06:55:41;;;;;;;22.43;11.43;;;9.40;89.10;;;;;;4981784;28;20212;-73
2022/11/10 06:58:08;;;;;;;25.93;13.37;;;9.40;89.40;;;;;;5001128;28;20181;-72
2022/11/10 07:00:33;;;;;;;21.53;11.63;;;9.50;89.70;;;;;;5002164;28;20572;-73
2022/11/10 07:03:05;;;;;;;25.47;11.73;;;9.60;89.50;;;;;;5002091;28;20181;-73
2022/11/10 07:05:32;;;;;;;24.33;12.87;;;9.80;89.50;;;;;;5002392;28;20240;-73
2022/11/10 07:08:12;;;;;;;25.33;14.03;;;9.90;90.20;;;;;;5002089;28;20573;-73
2022/11/10 07:10:38;;;;;;;23.42;12.63;;;10.20;90.30;;;;;;5000164;28;20188;-74
2022/11/10 07:13:04;;;;;;;25.17;13.57;;;10.40;90.80;;;;;;5002332;28;20195;-72
2022/11/10 07:15:30;;;;;;;28.70;15.20;;;10.70;91.30;;;;;;5000392;28;20212;-73
2022/11/10 07:17:56;;;;;;;27.63;14.80;;;11.10;90.70;;;;;;4998860;28;20270;-72
2022/11/10 07:20:22;;;;;;;31.20;15.15;;;11.40;89.20;;;;;;5001776;28;20268;-74
2022/11/10 07:22:48;;;;;;;28.77;15.23;;;11.70;88.50;;;;;;4999793;28;20183;-73
2022/11/10 07:25:13;;;;;;;24.60;14.13;;;11.90;89.20;;;;;;5001043;28;20236;-73
2022/11/10 07:27:39;;;;;;;30.48;13.45;;;12.20;89.50;;;;;;5001789;28;20177;-75
2022/11/10 07:30:05;;;;;;;24.77;14.63;;;12.60;89.60;;;;;;5001789;28;20181;-74
2022/11/10 07:32:31;;;;;;;29.30;14.90;;;13.10;88.50;;;;;;5000224;28;20208;-73
2022/11/10 07:34:57;;;;;;;31.25;13.43;;;13.70;88.00;;;;;;5004080;28;20208;-74
2022/11/10 07:37:22;;;;;;;23.92;14.85;;;14.20;86.50;;;;;;5004272;28;20180;-73
2022/11/10 07:39:48;;;;;;;23.50;13.23;;;14.70;84.60;;;;;;5000588;28;20176;-73
2022/11/10 07:42:14;;;;;;;26.85;14.35;;;15.20;83.40;;;;;;5001971;28;20222;-73
2022/11/10 07:44:40;;;;;;;23.08;14.25;;;15.70;81.70;;;;;;5001665;28;20183;-74
2022/11/10 07:47:05;;;;;;;26.60;15.10;;;16.30;80.20;;;;;;5001765;28;20208;-74
2022/11/10 07:49:31;;;;;;;23.08;14.65;;;16.80;77.90;;;;;;5002756;28;20296;-73
2022/11/10 07:51:57;;;;;;;30.38;16.30;;;17.20;78.50;;;;;;5004122;28;20676;-73
2022/11/10 07:54:22;;;;;;;25.00;15.43;;;17.70;76.90;;;;;;5002535;28;20683;-73
2022/11/10 07:56:48;;;;;;;23.00;15.43;;;18.20;75.10;;;;;;5002971;28;20191;-73
2022/11/10 07:59:14;;;;;;;22.00;14.82;;;18.70;74.50;;;;;;5003064;28;20223;-73
2022/11/10 08:01:39;;;;;;;26.75;16.55;;;19.20;74.30;;;;;;5003858;28;20256;-72
2022/11/10 08:04:05;;;;;;;23.33;16.15;;;19.60;72.50;;;;;;5003374;28;20196;-72
2022/11/10 08:06:31;;;;;;;28.48;18.25;;;20.10;71.50;;;;;;5001243;28;20219;-72
2022/11/10 08:08:57;;;;;;;28.73;18.35;;;20.50;70.30;;;;;;5002754;28;20766;-72
2022/11/10 08:11:23;;;;;;;29.77;17.58;;;20.90;69.30;;;;;;5003544;28;20203;-73
2022/11/10 08:13:48;;;;;;;28.92;18.05;;;21.30;68.70;;;;;;5002708;28;20181;-73
2022/11/10 08:16:14;;;;;;;28.60;17.88;;;21.60;66.50;;;;;;4984418;28;20203;-73
2022/11/10 08:18:40;;;;;;;34.03;20.35;;;21.90;64.70;;;;;;4984487;28;20320;-73
2022/11/10 08:21:06;;;;;;;29.60;18.30;;;22.00;65.40;;;;;;5002655;28;20667;-73
2022/11/10 08:23:32;;;;;;;31.38;17.80;;;22.20;65.70;;;;;;5002124;28;20185;-73
2022/11/10 08:25:59;;;;;;;33.92;19.75;;;22.40;64.00;;;;;;5002900;28;20220;-72
2022/11/10 08:28:25;;;;;;;28.77;18.92;;;22.60;63.70;;;;;;5003958;28;20870;-73
2022/11/10 08:30:51;;;;;;;31.13;19.65;;;22.70;63.90;;;;;;5006966;28;20191;-72
2022/11/10 08:33:19;;;;;;;26.15;17.83;;;22.90;63.90;;;;;;5006878;28;20189;-72
2022/11/10 08:35:47;;;;;;;27.67;20.23;;;23.10;64.80;;;;;;5007934;28;20733;-71
2022/11/10 08:38:19;;;;;;;36.50;19.05;;;23.40;60.50;;;;;;4989147;28;20698;-71
2022/11/10 08:40:45;;;;;;;34.75;20.77;;;23.50;63.60;;;;;;5006242;28;20181;-72
2022/11/10 08:43:12;;;;;;;29.58;18.77;;;23.80;62.60;;;;;;5006451;28;20189;-72
2022/11/10 08:45:40;;;;;;;32.63;19.60;;;24.00;62.40;;;;;;5005998;28;20205;-74
2022/11/10 08:48:15;;;;;;;30.38;18.38;;;24.30;62.30;;;;;;5008203;28;20582;-73
2022/11/10 08:50:41;;;;;;;27.48;17.88;;;24.60;61.70;;;;;;5005887;28;20199;-71
2022/11/10 08:53:13;;;;;;;31.05;19.45;;;24.90;60.60;;;;;;5003810;28;20205;-72
2022/11/10 08:55:40;;;;;;;31.67;20.67;;;25.20;60.50;;;;;;5005480;28;20736;-74
2022/11/10 08:58:07;;;;;;;27.35;19.10;;;25.50;60.10;;;;;;5005302;28;20726;-72
2022/11/10 09:00:33;;;;;;;28.58;20.35;;;25.70;59.30;;;;;;4986906;28;20196;-72
2022/11/10 09:03:05;;;;;;;30.25;21.55;;;25.80;59.60;;;;;;5006872;28;20208;-72
2022/11/10 09:05:31;;;;;;;36.08;20.75;;;26.00;59.40;;;;;;5004833;28;20244;-72
2022/11/10 09:07:57;;;;;;;33.30;20.63;;;26.10;58.80;;;;;;5005344;28;20177;-73
2022/11/10 09:10:23;;;;;;;38.60;23.45;;;26.30;58.50;;;;;;5006453;28;20212;-74
2022/11/10 09:12:48;;;;;;;34.65;22.38;;;26.30;58.20;;;;;;5005528;28;20265;-73
2022/11/10 09:15:14;;;;;;;32.67;21.50;;;26.50;58.10;;;;;;5005303;28;20200;-72
2022/11/10 09:17:41;;;;;;;36.22;22.33;;;26.60;58.10;;;;;;5006166;28;20184;-73
2022/11/10 09:20:08;;;;;;;32.58;22.88;;;26.90;57.80;;;;;;5003005;28;20189;-72
2022/11/10 09:22:36;;;;;;;33.45;22.83;;;27.20;57.60;;;;;;5003710;28;20185;-73
2022/11/10 09:25:02;;;;;;;32.42;23.10;;;27.40;57.50;;;;;;5005095;28;20183;-73
2022/11/10 09:27:28;;;;;;;35.70;23.15;;;27.70;56.70;;;;;;5004855;28;20181;-73
2022/11/10 09:29:54;;;;;;;30.27;21.88;;;27.90;56.30;;;;;;5006827;28;20189;-72
2022/11/10 09:32:19;;;;;;;34.83;21.63;;;28.10;56.20;;;;;;5006328;28;20177;-72
2022/11/10 09:34:45;;;;;;;34.50;21.60;;;28.20;55.20;;;;;;5005608;28;20624;-73
2022/11/10 09:37:11;;;;;;;34.58;21.45;;;28.30;55.30;;;;;;5004033;28;20184;-73
2022/11/10 09:39:37;;;;;;;35.72;22.67;;;28.50;55.20;;;;;;4985746;28;20192;-72
2022/11/10 09:42:25;;;;;;;31.65;21.23;;;28.60;55.10;;;;;;5002900;28;20207;-72
2022/11/10 09:44:59;;;;;;;30.67;21.60;;;28.70;52.50;;;;;;4986973;28;20288;-73
2022/11/10 09:47:51;;;;;;;35.05;22.23;;;28.60;53.80;;;;;;5006403;28;20197;-74
2022/11/10 09:50:40;;;;;;;31.35;22.05;;;28.40;52.70;;;;;;5002193;28;20212;-74
2022/11/10 09:53:14;;;;;;;29.17;21.20;;;28.30;54.40;;;;;;5004190;28;20188;-73
2022/11/10 09:55:44;;;;;;;34.60;22.00;;;28.30;55.40;;;;;;5005397;28;20197;-73
2022/11/10 09:58:14;;;;;;;32.33;24.17;;;28.50;55.10;;;;;;5004409;28;20577;-73
2022/11/10 10:00:45;;;;;;;32.65;22.55;;;28.70;55.10;;;;;;5003789;28;20338;-73
2022/11/10 10:03:18;;;;;;;29.77;21.38;;;28.90;50.90;;;;;;4984930;28;20763;-73
2022/11/10 10:06:02;;;;;;;32.13;21.38;;;29.10;53.30;;;;;;5003931;28;20205;-72
2022/11/10 10:08:51;;;;;;;33.97;23.42;;;29.00;49.30;;;;;;5003838;28;20200;-73
2022/11/10 10:11:48;;;;;;;33.05;22.88;;;29.00;51.50;;;;;;5005475;28;20181;-72
2022/11/10 10:14:45;;;;;;;30.40;20.48;;;28.90;49.80;;;;;;5002687;28;20190;-71
2022/11/10 10:17:25;;;;;;;29.90;19.10;;;28.60;52.80;;;;;;5002091;28;20185;-73
2022/11/10 10:20:11;;;;;;;30.67;21.38;;;28.30;52.80;;;;;;5002152;28;20223;-72
2022/11/10 10:23:15;;;;;;;23.85;18.75;;;28.10;52.90;;;;;;4995579;28;20191;-70
2022/11/10 10:25:44;;;;;;;30.42;20.25;;;27.90;51.50;;;;;;4950559;28;20226;-71
2022/11/10 10:28:24;;;;;;;33.65;20.73;;;27.90;53.20;;;;;;4944976;28;20198;-71
2022/11/10 10:30:50;;;;;;;29.60;20.77;;;27.90;53.10;;;;;;4944292;28;20199;-72
2022/11/10 10:33:22;;;;;;;33.53;20.05;;;28.00;52.90;;;;;;4948221;28;20202;-71
2022/11/10 10:35:49;;;;;;;27.08;19.40;;;28.00;54.50;;;;;;4935783;28;20673;-71
2022/11/10 10:38:24;;;;;;;29.10;20.02;;;28.20;53.90;;;;;;4947401;28;20191;-70
2022/11/10 10:40:51;;;;;;;34.20;19.77;;;28.30;54.50;;;;;;4932421;28;20637;-70
2022/11/10 10:43:17;;;;;;;28.08;19.20;;;28.50;53.60;;;;;;4929156;28;20684;-71
2022/11/10 10:45:43;;;;;;;26.60;19.65;;;28.60;51.70;;;;;;4943549;28;20227;-71
2022/11/10 10:48:29;;;;;;;28.50;20.17;;;28.60;50.80;;;;;;4946792;28;20909;-71
2022/11/10 10:50:54;;;;;;;24.50;19.10;;;28.50;50.10;;;;;;4949929;28;20532;-71
2022/11/10 10:53:23;;;;;;;24.00;18.45;;;28.30;52.60;;;;;;4948777;28;20186;-71
2022/11/10 10:55:58;;;;;;;25.85;17.00;;;28.30;53.30;;;;;;4934554;28;20248;-72
2022/11/10 10:58:28;;;;;;;22.27;16.98;;;28.50;54.40;;;;;;4943837;28;20206;-71
2022/11/10 11:01:30;;;;;;;24.23;17.75;;;28.80;53.70;;;;;;4966581;28;20464;-71
2022/11/10 11:03:57;;;;;;;25.73;17.00;;;29.10;50.20;;;;;;4904327;29;20302;-71
2022/11/10 11:06:28;;;;;;;28.33;18.15;;;29.30;52.10;;;;;;4903726;29;20276;-71
2022/11/10 11:09:18;;;;;;;24.98;17.98;;;29.40;52.20;;;;;;4901444;29;20244;-71
2022/11/10 11:12:00;;;;;;;23.30;17.15;;;29.40;50.70;;;;;;4903655;29;20193;-72
2022/11/10 11:14:28;;;;;;;21.73;16.73;;;29.60;51.50;;;;;;4903818;29;20250;-72
2022/11/10 11:17:12;;;;;;;30.27;17.75;;;29.60;49.30;;;;;;4903993;29;20274;-72
2022/11/10 11:19:38;;;;;;;25.52;17.92;;;29.80;50.30;;;;;;4901582;29;20196;-72
2022/11/10 11:22:40;;;;;;;25.15;19.20;;;29.80;50.20;;;;;;4904331;29;20196;-71
2022/11/10 11:25:29;;;;;;;29.98;18.55;;;29.50;49.50;;;;;;4904299;29;20593;-72
2022/11/10 11:28:13;;;;;;;22.92;17.65;;;29.20;50.70;;;;;;4847647;29;20205;-72
2022/11/10 11:31:02;;;;;;;26.88;17.38;;;29.00;52.00;;;;;;4847138;29;20202;-72
2022/11/10 11:33:42;;;;;;;22.25;16.70;;;29.10;52.00;;;;;;4846147;29;20210;-72
2022/11/10 11:36:24;;;;;;;22.45;16.42;;;29.30;51.70;;;;;;4848747;29;20202;-72
2022/11/10 11:38:52;;;;;;;23.63;17.25;;;29.50;50.10;;;;;;4928106;28;20242;-72
2022/11/10 11:41:26;;;;;;;25.73;18.15;;;29.50;49.60;;;;;;4938547;28;20260;-72
2022/11/10 11:44:25;;;;;;;23.30;18.10;;;29.60;48.80;;;;;;4939180;28;20272;-71
2022/11/10 11:47:16;;;;;;;26.58;19.45;;;29.60;49.80;;;;;;4938076;28;20660;-71
2022/11/10 11:49:45;;;;;;;27.23;18.23;;;29.40;51.20;;;;;;4923438;29;20696;-71
2022/11/10 11:52:20;;;;;;;24.15;16.38;;;29.10;51.60;;;;;;4933451;28;20203;-70
2022/11/10 11:55:23;;;;;;;23.90;17.88;;;28.90;50.40;;;;;;4940923;28;20203;-72
2022/11/10 11:58:04;;;;;;;26.00;17.85;;;28.80;50.20;;;;;;4941167;28;20217;-71
2022/11/10 12:00:55;;;;;;;23.13;17.92;;;28.70;50.90;;;;;;4941509;28;20195;-71
2022/11/10 12:03:46;;;;;;;26.10;19.23;;;28.80;50.90;;;;;;4938940;28;20199;-71
2022/11/10 12:06:39;;;;;;;25.80;17.10;;;29.00;50.50;;;;;;5003769;28;20224;-71
2022/11/10 12:09:32;;;;;;;30.67;19.05;;;28.80;48.90;;;;;;5003988;28;20181;-72
2022/11/10 12:12:22;;;;;;;32.33;18.17;;;28.80;49.10;;;;;;5002843;28;20193;-71
2022/11/10 12:15:03;;;;;;;28.13;17.52;;;28.80;50.70;;;;;;5003594;28;20196;-71
2022/11/10 12:17:47;;;;;;;21.00;16.33;;;28.80;51.10;;;;;;5002301;28;20559;-71
2022/11/10 12:20:32;;;;;;;24.27;17.58;;;28.90;49.00;;;;;;5003420;28;20188;-71
2022/11/10 12:23:00;;;;;;;26.33;18.85;;;28.70;49.80;;;;;;5002197;28;20209;-71
2022/11/10 12:25:44;;;;;;;26.02;17.55;;;28.30;50.10;;;;;;5003876;28;20229;-75
2022/11/10 12:28:15;;;;;;;23.67;17.95;;;28.30;50.90;;;;;;5000516;28;20184;-74
2022/11/10 12:30:43;;;;;;;23.15;15.50;;;28.00;50.20;;;;;;5003492;28;20367;-75
2022/11/10 12:33:24;;;;;;;25.63;18.33;;;27.70;51.90;;;;;;5004184;28;20667;-73
2022/11/10 12:35:52;;;;;;;26.60;17.67;;;27.60;51.20;;;;;;5003495;28;21763;-73
2022/11/10 12:38:43;;;;;;;26.73;18.48;;;27.40;52.30;;;;;;5003987;28;20647;-74
2022/11/10 12:41:15;;;;;;;27.95;17.98;;;27.40;50.90;;;;;;5002476;28;20185;-74
2022/11/10 12:44:06;;;;;;;27.13;17.95;;;27.40;51.30;;;;;;5004655;28;20265;-73
2022/11/10 12:46:32;;;;;;;23.00;16.80;;;27.50;51.30;;;;;;5004548;28;20295;-73
2022/11/10 12:49:14;;;;;;;24.98;17.83;;;27.70;52.50;;;;;;5006505;28;20311;-73
2022/11/10 12:51:57;;;;;;;24.65;17.90;;;27.40;51.10;;;;;;5006364;28;20205;-73
2022/11/10 12:54:26;;;;;;;28.33;18.48;;;27.20;51.90;;;;;;5002865;28;20279;-74
2022/11/10 12:57:00;;;;;;;22.48;16.63;;;27.00;51.40;;;;;;5006074;28;20315;-70
2022/11/10 12:59:30;;;;;;;23.25;16.27;;;26.80;53.90;;;;;;5005363;28;20185;-74
2022/11/10 13:02:02;;;;;;;23.83;18.05;;;26.70;52.40;;;;;;5002738;28;21583;-74